Time;durP1;ratioP1;P1;durP2;ratioP2;P2;SDS_P1;SDS_P2;PMS_P1;PMS_P2;Temp;Humidity;BMP_temperature;BMP_pressure;BME280_temperature;BME280_humidity;BME280_pressure;Samples;Min_cycle;Max_cycle;Signal;HPM_P1;HPM_P2
2023/05/12 00:02:13;;;;;;;;;4.00;4.00;;;;;16.17;49.82;101160.69;4964206;28;45510;-63
2023/05/12 00:04:39;;;;;;;;;3.00;3.00;;;;;16.16;50.23;101156.16;4969235;28;45572;-61
2023/05/12 00:07:05;;;;;;;;;6.33;3.00;;;;;16.07;50.47;101156.97;4972617;28;45402;-61
2023/05/12 00:09:31;;;;;;;;;3.00;1.67;;;;;16.11;50.17;101166.00;4967561;28;45888;-62
2023/05/12 00:11:56;;;;;;;;;2.33;0.67;;;;;16.00;49.66;101136.22;4971788;28;45440;-61
2023/05/12 00:14:21;;;;;;;;;0.67;0.67;;;;;16.11;49.72;101166.88;4972194;28;45506;-63
2023/05/12 00:16:50;;;;;;;;;1.67;0.67;;;;;16.10;49.90;101162.41;4970741;28;45673;-61
2023/05/12 00:19:19;;;;;;;;;1.00;1.00;;;;;16.08;50.26;101164.16;4964230;28;47209;-61
2023/05/12 00:21:44;;;;;;;;;3.00;1.67;;;;;16.03;49.75;101163.22;4959590;28;45335;-62
2023/05/12 00:24:10;;;;;;;;;1.67;1.67;;;;;16.02;49.70;101156.03;4968903;28;45492;-61
2023/05/12 00:26:35;;;;;;;;;2.00;0.67;;;;;15.93;49.56;101147.84;4968936;28;45386;-61
2023/05/12 00:29:01;;;;;;;;;2.67;2.67;;;;;15.97;49.74;101157.75;4972072;28;45460;-61
2023/05/12 00:31:26;;;;;;;;;1.00;0.00;;;;;15.87;49.53;101147.75;4969700;28;51419;-62
2023/05/12 00:33:51;;;;;;;;;2.00;2.00;;;;;15.94;50.29;101166.72;4971714;28;45406;-61
2023/05/12 00:36:16;;;;;;;;;4.67;0.67;;;;;15.87;49.72;101162.13;4970832;28;45689;-66
2023/05/12 00:38:42;;;;;;;;;1.67;1.67;;;;;15.90;49.61;101162.16;4972937;28;45424;-62
2023/05/12 00:41:07;;;;;;;;;2.00;2.00;;;;;15.90;50.12;101163.97;4971944;28;45519;-61
2023/05/12 00:43:32;;;;;;;;;5.00;3.67;;;;;15.78;49.70;101143.19;4971661;28;45626;-62
2023/05/12 00:45:59;;;;;;;;;2.00;1.00;;;;;15.79;49.93;101162.06;4971191;28;45612;-60
2023/05/12 00:48:25;;;;;;;;;1.33;0.67;;;;;15.83;50.06;101161.19;4970668;28;46361;-61
2023/05/12 00:50:50;;;;;;;;;3.00;2.33;;;;;15.83;49.56;101163.88;4971040;28;45875;-61
2023/05/12 00:53:16;;;;;;;;;3.00;1.00;;;;;15.86;49.46;101162.13;4961011;28;45759;-62
2023/05/12 00:55:43;;;;;;;;;0.67;0.67;;;;;15.78;50.12;101146.78;4974420;28;45364;-67
2023/05/12 00:58:08;;;;;;;;;2.00;1.33;;;;;15.81;50.12;101149.50;4971277;28;47094;-61
2023/05/12 01:00:33;;;;;;;;;3.33;2.00;;;;;15.87;50.06;101161.22;4967432;28;45662;-61
2023/05/12 01:02:59;;;;;;;;;6.33;3.67;;;;;15.87;49.69;101148.66;4968075;28;45475;-61
2023/05/12 01:05:30;;;;;;;;;3.00;3.00;;;;;15.88;49.79;101153.16;4963022;28;45460;-60
2023/05/12 01:07:58;;;;;;;;;1.67;1.00;;;;;15.89;49.80;101156.75;4960714;28;46390;-62
2023/05/12 01:10:24;;;;;;;;;2.67;2.67;;;;;15.50;49.62;101082.69;4970942;28;45374;-62
2023/05/12 01:12:49;;;;;;;;;1.00;0.67;;;;;15.90;50.24;101154.09;4967010;28;46060;-63
2023/05/12 01:15:16;;;;;;;;;1.33;1.33;;;;;15.82;50.09;101140.56;4970443;28;45666;-61
2023/05/12 01:17:51;;;;;;;;;1.67;1.67;;;;;15.90;49.92;101159.47;4970689;28;46360;-60
2023/05/12 01:20:20;;;;;;;;;3.00;3.00;;;;;15.92;50.18;101151.41;4962707;28;45563;-63
2023/05/12 01:22:48;;;;;;;;;2.33;0.67;;;;;15.86;49.85;101146.88;4975380;28;45283;-60
2023/05/12 01:25:14;;;;;;;;;2.00;2.00;;;;;15.88;50.01;101153.16;4963891;28;45394;-61
2023/05/12 01:27:41;;;;;;;;;1.33;0.33;;;;;15.87;49.68;101155.84;4972876;28;46100;-62
2023/05/12 01:30:08;;;;;;;;;3.67;2.33;;;;;15.87;50.48;101155.84;4971256;28;45463;-61
2023/05/12 01:32:35;;;;;;;;;2.67;0.67;;;;;15.81;49.98;101143.22;4973458;28;45456;-62
2023/05/12 01:35:00;;;;;;;;;0.67;0.67;;;;;15.80;50.23;101144.09;4962363;28;45478;-61
2023/05/12 01:37:25;;;;;;;;;0.67;0.67;;;;;15.75;49.95;101135.03;4970591;28;49162;-61
2023/05/12 01:39:52;;;;;;;;;2.00;2.00;;;;;15.84;49.67;101160.31;4970782;28;45341;-59
2023/05/12 01:42:17;;;;;;;;;1.33;1.33;;;;;15.80;50.26;101161.16;4969538;28;45510;-61
2023/05/12 01:44:43;;;;;;;;;1.33;1.33;;;;;15.77;50.38;101161.16;4974484;28;45320;-61
2023/05/12 01:47:10;;;;;;;;;5.00;2.00;;;;;15.75;50.71;101159.28;4974841;28;45746;-61
2023/05/12 01:49:38;;;;;;;;;1.00;1.00;;;;;15.73;50.54;101158.34;4970675;28;45388;-63
2023/05/12 01:52:03;;;;;;;;;1.33;0.67;;;;;15.70;50.53;101159.22;4973364;28;45508;-61
2023/05/12 01:54:29;;;;;;;;;2.50;0.50;;;;;15.60;50.94;101135.75;4972695;28;45461;-62
2023/05/12 01:56:54;;;;;;;;;1.67;1.67;;;;;15.63;51.26;101150.16;4969881;28;47724;-62
2023/05/12 01:59:20;;;;;;;;;3.33;1.33;;;;;15.61;51.21;101148.34;4978617;28;52647;-62
2023/05/12 02:01:45;;;;;;;;;1.67;1.67;;;;;15.66;51.40;101154.69;4979361;28;45660;-62
2023/05/12 02:04:11;;;;;;;;;4.33;2.00;;;;;15.60;51.62;101152.81;4981965;28;45069;-62
2023/05/12 02:06:36;;;;;;;;;1.00;1.00;;;;;15.57;51.50;101149.19;4973413;28;46022;-62
2023/05/12 02:09:01;;;;;;;;;1.33;0.67;;;;;15.59;51.79;101156.41;4967187;28;45296;-62
2023/05/12 02:11:27;;;;;;;;;6.00;3.33;;;;;15.45;51.79;101144.56;4969244;28;45989;-60
2023/05/12 02:13:52;;;;;;;;;2.00;2.00;;;;;15.53;52.26;101163.50;4973564;28;45341;-60
2023/05/12 02:16:17;;;;;;;;;2.00;2.00;;;;;15.48;52.62;101155.38;4972929;28;46186;-62
2023/05/12 02:18:43;;;;;;;;;4.00;2.67;;;;;15.46;52.63;101168.81;4974861;28;45322;-61
2023/05/12 02:21:08;;;;;;;;;3.00;2.00;;;;;15.36;52.97;101149.81;4972296;28;46010;-62
2023/05/12 02:23:33;;;;;;;;;4.00;2.00;;;;;15.10;52.55;101104.63;4970715;28;45556;-60
2023/05/12 02:25:59;;;;;;;;;2.33;2.33;;;;;15.36;52.92;101155.19;4974005;28;46476;-61
2023/05/12 02:28:24;;;;;;;;;4.33;3.33;;;;;15.35;53.11;101158.78;4975134;28;45307;-61
2023/05/12 02:30:51;;;;;;;;;2.67;1.67;;;;;15.32;52.97;101156.06;4975006;28;45367;-62
2023/05/12 02:33:18;;;;;;;;;6.00;3.00;;;;;15.31;53.23;101152.47;4963742;28;45592;-63
2023/05/12 02:35:44;;;;;;;;;1.00;1.00;;;;;15.21;53.18;101145.13;4960543;28;45402;-60
2023/05/12 02:38:10;;;;;;;;;2.33;2.33;;;;;15.20;53.39;101148.72;4973406;28;45881;-60
2023/05/12 02:40:36;;;;;;;;;5.67;3.00;;;;;15.21;53.43;101161.28;4973299;28;45484;-62
2023/05/12 02:43:02;;;;;;;;;2.00;2.00;;;;;15.15;53.54;101150.44;4960806;28;45480;-66
2023/05/12 02:45:27;;;;;;;;;2.00;2.00;;;;;15.16;53.56;101153.13;4984094;28;47519;-61
2023/05/12 02:47:53;;;;;;;;;4.33;3.67;;;;;15.12;53.77;101151.28;4972687;28;49821;-61
2023/05/12 02:50:20;;;;;;;;;3.00;3.00;;;;;15.12;53.65;101143.22;4973141;28;45445;-66
2023/05/12 02:52:46;;;;;;;;;2.00;2.00;;;;;15.14;53.87;101149.50;4963252;28;45293;-61
2023/05/12 02:55:11;;;;;;;;;2.00;2.00;;;;;15.15;53.59;101153.13;4972507;28;46348;-61
2023/05/12 02:57:36;;;;;;;;;2.00;2.00;;;;;15.10;53.75;101153.97;4972949;28;45477;-61
2023/05/12 03:00:04;;;;;;;;;3.67;1.67;;;;;14.84;53.76;101110.53;4966819;28;45481;-62
2023/05/12 03:02:30;;;;;;;;;3.33;1.67;;;;;14.93;54.09;101129.50;4972988;28;45436;-64
2023/05/12 03:04:56;;;;;;;;;2.33;2.00;;;;;15.00;53.42;101141.25;4972522;28;45514;-60
2023/05/12 03:07:21;;;;;;;;;7.67;4.00;;;;;15.06;53.70;101145.81;4972048;28;48493;-60
2023/05/12 03:09:47;;;;;;;;;4.67;3.00;;;;;15.09;54.11;101152.13;4967441;28;45645;-61
2023/05/12 03:12:12;;;;;;;;;2.33;2.33;;;;;15.10;54.00;101153.06;4965343;28;45316;-61
2023/05/12 03:14:38;;;;;;;;;5.67;3.00;;;;;15.08;54.24;101147.66;4973007;28;45587;-60
2023/05/12 03:17:03;;;;;;;;;3.00;3.00;;;;;15.04;54.22;101150.28;4979085;27;45315;-60
2023/05/12 03:19:28;;;;;;;;;3.67;3.67;;;;;14.95;54.29;101139.38;4972641;28;45488;-60
2023/05/12 03:21:54;;;;;;;;;4.00;2.33;;;;;14.98;54.61;101155.56;4967015;28;45528;-61
2023/05/12 03:24:19;;;;;;;;;3.00;3.00;;;;;14.93;54.75;101150.09;4972902;28;46020;-61
2023/05/12 03:26:45;;;;;;;;;5.00;3.67;;;;;14.90;54.71;101145.59;4972335;28;45517;-60
2023/05/12 03:29:10;;;;;;;;;3.33;2.00;;;;;14.91;54.79;101157.25;4972845;28;45728;-60
2023/05/12 03:31:36;;;;;;;;;3.67;3.00;;;;;14.86;55.11;101145.53;4973154;28;45562;-61
2023/05/12 03:34:01;;;;;;;;;6.33;4.67;;;;;14.82;55.01;101154.44;4972606;28;45281;-62
2023/05/12 03:36:26;;;;;;;;;6.00;3.00;;;;;14.80;55.19;101151.72;4963463;28;45426;-61
2023/05/12 03:38:52;;;;;;;;;4.67;3.00;;;;;14.77;55.34;101148.09;4972666;28;45449;-61
2023/05/12 03:41:17;;;;;;;;;3.00;3.00;;;;;14.80;55.35;101148.09;4967347;28;45509;-61
2023/05/12 03:43:42;;;;;;;;;4.67;3.67;;;;;14.77;55.17;101145.41;4969560;28;45389;-61
2023/05/12 03:46:08;;;;;;;;;4.33;4.33;;;;;14.78;55.49;101152.56;4961931;28;45450;-60
2023/05/12 03:48:33;;;;;;;;;5.33;5.00;;;;;14.80;55.57;101153.50;4970588;28;45362;-61
2023/05/12 03:50:58;;;;;;;;;5.00;5.00;;;;;14.79;55.59;101154.38;4972797;28;45352;-61
2023/05/12 03:53:24;;;;;;;;;3.67;3.67;;;;;14.77;55.46;101154.38;4972003;28;45995;-61
2023/05/12 03:55:50;;;;;;;;;2.33;2.33;;;;;14.75;55.35;101150.75;4963988;28;45407;-61
2023/05/12 03:58:15;;;;;;;;;2.67;2.00;;;;;14.75;55.33;101150.75;4971744;28;45488;-61
2023/05/12 04:00:40;;;;;;;;;2.67;2.67;;;;;14.73;55.44;101148.03;4972523;28;45421;-60
2023/05/12 04:03:06;;;;;;;;;5.00;4.00;;;;;14.38;55.14;101097.22;4971916;28;45551;-61
2023/05/12 04:05:31;;;;;;;;;2.33;2.33;;;;;14.73;55.30;101150.72;4971486;28;45489;-60
2023/05/12 04:07:56;;;;;;;;;3.00;2.00;;;;;14.62;55.01;101146.03;4964900;28;55190;-62
2023/05/12 04:10:22;;;;;;;;;4.00;3.00;;;;;14.62;54.81;101144.28;4982372;28;46100;-61
2023/05/12 04:12:47;;;;;;;;;4.00;2.00;;;;;14.65;55.05;101164.91;4977503;28;45269;-61
2023/05/12 04:15:13;;;;;;;;;3.67;3.00;;;;;14.59;55.02;101154.03;4973228;28;45369;-61
2023/05/12 04:17:39;;;;;;;;;3.00;3.00;;;;;14.56;54.85;101158.47;4973413;28;45408;-64
2023/05/12 04:20:05;;;;;;;;;4.33;2.00;;;;;14.47;54.91;101139.50;4971294;28;45203;-64
2023/05/12 04:22:31;;;;;;;;;3.00;2.67;;;;;14.48;54.91;101146.69;4970998;28;47564;-59
2023/05/12 04:24:56;;;;;;;;;5.67;3.00;;;;;14.46;54.65;101135.00;4973158;28;45389;-63
2023/05/12 04:27:21;;;;;;;;;3.67;2.67;;;;;14.57;54.44;101159.38;4973142;28;50430;-60
2023/05/12 04:29:47;;;;;;;;;7.67;3.00;;;;;14.55;53.39;101156.69;4973663;28;45295;-61
2023/05/12 04:32:12;;;;;;;;;3.67;1.00;;;;;14.48;53.43;101154.75;4971548;28;45905;-60
2023/05/12 04:34:37;;;;;;;;;6.33;2.00;;;;;14.50;53.36;101154.78;4972280;28;45434;-61
2023/05/12 04:37:03;;;;;;;;;3.00;2.00;;;;;14.53;52.56;101155.72;4971337;28;45465;-61
2023/05/12 04:39:28;;;;;;;;;5.00;2.67;;;;;14.51;52.77;101151.22;4971483;28;45606;-60
2023/05/12 04:41:53;;;;;;;;;3.33;3.33;;;;;14.56;51.97;101166.53;4973612;28;47240;-60
2023/05/12 04:44:19;;;;;;;;;4.67;2.00;;;;;14.53;51.69;101154.81;4971508;28;45386;-61
2023/05/12 04:46:44;;;;;;;;;3.00;3.00;;;;;14.57;49.76;101170.16;4963170;28;45945;-60
2023/05/12 04:49:10;;;;;;;;;1.00;1.00;;;;;14.56;49.42;101174.59;4977264;28;45423;-61
2023/05/12 04:51:40;;;;;;;;;2.00;2.00;;;;;14.54;49.88;101159.34;4975466;28;45972;-60
2023/05/12 04:54:08;;;;;;;;;2.00;1.00;;;;;14.56;49.23;101165.63;4968221;28;45353;-65
2023/05/12 04:56:33;;;;;;;;;1.00;1.00;;;;;14.60;49.12;101170.25;4973546;28;45440;-61
2023/05/12 04:58:59;;;;;;;;;1.33;1.00;;;;;14.49;48.78;101144.91;4972909;28;45527;-60
2023/05/12 05:01:24;;;;;;;;;1.00;1.00;;;;;14.54;48.14;101167.41;4970023;28;46259;-63
2023/05/12 05:03:50;;;;;;;;;1.00;1.00;;;;;14.62;47.79;101175.59;4965587;28;45444;-63
2023/05/12 05:06:15;;;;;;;;;2.33;2.33;;;;;14.61;48.15;101180.09;4970841;28;45594;-63
2023/05/12 05:08:41;;;;;;;;;2.00;1.00;;;;;14.52;48.59;101163.78;4973436;28;45354;-62
2023/05/12 05:11:06;;;;;;;;;6.00;2.00;;;;;14.64;48.64;101190.91;4971822;28;45378;-61
2023/05/12 05:13:31;;;;;;;;;2.00;1.00;;;;;14.54;48.00;101171.00;4970351;28;45535;-67
2023/05/12 05:15:57;;;;;;;;;2.00;2.00;;;;;14.53;48.20;101165.59;4961296;28;45632;-62
2023/05/12 05:18:22;;;;;;;;;6.67;6.67;;;;;14.64;48.50;101181.94;4969114;28;45278;-63
2023/05/12 05:20:47;;;;;;;;;2.00;2.00;;;;;14.65;48.21;101186.41;4965845;28;46079;-61
2023/05/12 05:23:13;;;;;;;;;4.33;3.00;;;;;14.52;47.74;101169.16;4998779;28;45489;-62
2023/05/12 05:25:38;;;;;;;;;3.00;3.00;;;;;14.64;47.47;101190.91;4971337;28;45486;-60
2023/05/12 05:28:04;;;;;;;;;6.00;3.00;;;;;14.67;48.00;101192.75;4969165;28;45239;-60
2023/05/12 05:30:30;;;;;;;;;3.00;1.67;;;;;14.64;47.95;101188.22;4969092;28;45397;-61
2023/05/12 05:32:55;;;;;;;;;3.00;3.00;;;;;14.65;47.48;101194.50;4971310;28;45540;-60
2023/05/12 05:35:20;;;;;;;;;45.00;35.50;;;;;14.59;47.78;101189.00;4972148;28;45318;-60
2023/05/12 05:37:46;;;;;;;;;13.75;11.25;;;;;14.53;47.98;101176.34;4971020;28;45405;-62
2023/05/12 05:40:11;;;;;;;;;4.00;3.00;;;;;14.40;48.14;101156.41;4969004;28;47855;-68
2023/05/12 05:42:37;;;;;;;;;3.67;3.67;;;;;14.61;48.36;101193.53;4959432;28;45767;-61
2023/05/12 05:45:02;;;;;;;;;5.00;2.33;;;;;14.65;48.52;101200.78;4971459;28;45397;-61
2023/05/12 05:47:28;;;;;;;;;3.00;3.00;;;;;14.66;48.45;101191.81;4974958;28;45306;-60
2023/05/12 05:49:54;;;;;;;;;14.25;11.50;;;;;14.66;48.14;101196.31;4973888;28;46053;-61
2023/05/12 05:52:19;;;;;;;;;6.33;2.33;;;;;14.70;47.82;101199.09;4966392;28;45765;-62
2023/05/12 05:54:45;;;;;;;;;6.00;4.67;;;;;14.71;48.20;101194.59;4952280;28;45662;-59
2023/05/12 05:57:10;;;;;;;;;3.67;3.67;;;;;14.70;48.10;101199.09;4973736;28;45464;-63
2023/05/12 05:59:35;;;;;;;;;3.33;2.00;;;;;14.69;48.19;101189.19;4974765;28;48559;-62
2023/05/12 06:02:01;;;;;;;;;3.33;2.00;;;;;14.71;48.29;101189.22;4969018;28;45591;-62
2023/05/12 06:04:26;;;;;;;;;5.33;2.00;;;;;14.72;47.91;101194.63;4967720;28;45474;-59
2023/05/12 06:06:52;;;;;;;;;3.67;3.00;;;;;14.70;47.87;101192.78;4974276;28;45461;-61
2023/05/12 06:09:17;;;;;;;;;4.00;2.33;;;;;14.77;48.07;101199.19;4971267;28;45492;-60
2023/05/12 06:11:43;;;;;;;;;6.33;3.00;;;;;14.70;47.93;101193.72;4964049;28;45440;-60
2023/05/12 06:14:08;;;;;;;;;4.00;2.67;;;;;14.71;48.60;101192.81;4970499;28;45485;-60
2023/05/12 06:16:33;;;;;;;;;12.67;10.67;;;;;14.75;48.50;101199.16;4972258;28;45344;-60
2023/05/12 06:18:59;;;;;;;;;5.00;4.33;;;;;14.75;48.28;101193.78;4973159;28;46349;-61
2023/05/12 06:21:24;;;;;;;;;5.00;4.00;;;;;14.78;48.17;101199.19;4970945;28;45475;-62
2023/05/12 06:23:50;;;;;;;;;6.33;5.00;;;;;14.74;47.73;101195.56;4970570;28;45311;-59
2023/05/12 06:26:16;;;;;;;;;8.00;7.67;;;;;14.83;48.39;101199.28;4972602;28;45408;-61
2023/05/12 06:28:41;;;;;;;;;6.00;6.00;;;;;14.76;47.94;101190.19;4972675;28;45406;-64
2023/05/12 06:31:07;;;;;;;;;10.67;8.00;;;;;14.89;48.15;101207.44;4972614;28;45401;-62
2023/05/12 06:33:33;;;;;;;;;3.00;3.00;;;;;14.91;47.98;101203.91;4973016;28;45443;-62
2023/05/12 06:35:58;;;;;;;;;3.00;3.00;;;;;14.86;48.08;101188.56;4973114;28;45292;-60
2023/05/12 06:38:23;;;;;;;;;3.33;3.00;;;;;14.95;48.56;101198.56;4970005;28;45301;-61
2023/05/12 06:40:49;;;;;;;;;3.33;3.33;;;;;15.03;48.53;101210.34;4972455;28;54089;-59
2023/05/12 06:43:14;;;;;;;;;6.33;3.00;;;;;15.10;48.50;101202.41;4972586;28;45373;-61
2023/05/12 06:45:43;;;;;;;;;7.00;7.00;;;;;14.84;48.25;101150.88;4977583;27;45475;-68
2023/05/12 06:48:09;;;;;;;;;5.00;3.67;;;;;15.05;48.34;101179.00;4965625;28;48284;-61
2023/05/12 06:50:34;;;;;;;;;4.33;2.67;;;;;15.09;48.63;101189.81;4962720;28;45548;-65
2023/05/12 06:53:00;;;;;;;;;5.00;5.00;;;;;15.22;48.65;101216.94;4972894;28;45374;-60
2023/05/12 06:55:25;;;;;;;;;9.33;9.33;;;;;15.15;49.37;101202.47;4972989;28;45339;-62
2023/05/12 06:57:54;;;;;;;;;10.00;6.67;;;;;15.25;48.76;101208.91;4972219;28;45276;-61
2023/05/12 07:00:23;;;;;;;;;9.67;4.00;;;;;15.26;48.87;101217.00;4970708;28;45496;-59
2023/05/12 07:02:49;;;;;;;;;6.00;4.33;;;;;15.29;48.98;101208.97;4972805;28;45492;-62
2023/05/12 07:05:15;;;;;;;;;19.50;16.00;;;;;15.33;48.78;101211.69;4972790;28;45475;-62
2023/05/12 07:07:40;;;;;;;;;7.33;6.00;;;;;15.40;49.41;101201.03;4972660;28;46299;-62
2023/05/12 07:10:06;;;;;;;;;18.50;14.25;;;;;15.42;49.19;101203.75;4972117;28;45296;-60
2023/05/12 07:12:32;;;;;;;;;9.00;9.00;;;;;15.45;49.23;101203.78;4972792;28;45617;-61
2023/05/12 07:14:57;;;;;;;;;7.00;7.00;;;;;15.44;49.05;101199.28;4972440;28;45607;-63
2023/05/12 07:17:23;;;;;;;;;2.67;0.00;;;;;15.43;49.15;101198.38;4971828;28;45500;-61
2023/05/12 07:19:48;;;;;;;;;81.50;79.25;;;;;15.46;49.60;101201.13;4972067;28;45507;-61
2023/05/12 07:22:14;;;;;;;;;5.33;5.33;;;;;15.51;49.08;101208.34;4972100;28;45375;-65
2023/05/12 07:24:40;;;;;;;;;7.00;6.33;;;;;15.55;49.24;101207.50;4972684;28;45672;-62
2023/05/12 07:27:07;;;;;;;;;7.00;6.00;;;;;15.65;49.32;101206.75;4971831;28;45941;-63
2023/05/12 07:29:32;;;;;;;;;6.67;4.67;;;;;15.69;49.16;101202.28;4972339;27;45653;-66
2023/05/12 07:31:58;;;;;;;;;6.67;3.67;;;;;15.63;49.53;101192.34;4968143;28;45545;-62
2023/05/12 07:34:23;;;;;;;;;5.00;4.00;;;;;15.62;49.71;101182.47;4964024;28;45341;-63
2023/05/12 07:36:49;;;;;;;;;12.67;11.67;;;;;15.66;49.23;101197.78;4972057;28;45869;-63
2023/05/12 07:39:18;;;;;;;;;25.00;17.75;;;;;15.61;49.94;101178.88;4971057;28;45414;-63
2023/05/12 07:41:43;;;;;;;;;7.00;6.00;;;;;15.80;49.56;101192.59;4967945;28;45415;-68
2023/05/12 07:44:09;;;;;;;;;8.00;5.00;;;;;15.78;49.96;101194.38;4964173;28;45648;-61
2023/05/12 07:46:35;;;;;;;;;5.67;5.00;;;;;15.87;49.63;101189.06;4970086;28;48954;-63
2023/05/12 07:49:00;;;;;;;;;7.67;7.67;;;;;15.94;50.00;101182.88;4970978;28;45366;-65
2023/05/12 07:51:26;;;;;;;;;6.33;3.00;;;;;16.05;49.90;101195.56;4972120;28;45507;-62
2023/05/12 07:53:51;;;;;;;;;8.00;7.00;;;;;16.07;49.36;101194.72;4972376;28;45370;-63
2023/05/12 07:56:17;;;;;;;;;5.00;3.00;;;;;16.19;49.91;101196.63;4971904;28;46833;-61
2023/05/12 07:58:42;;;;;;;;;3.00;3.00;;;;;16.23;49.39;101190.38;4961976;28;45864;-63
2023/05/12 08:01:09;;;;;;;;;8.00;7.00;;;;;16.33;49.82;101189.59;4969723;28;45506;-61
2023/05/12 08:03:34;;;;;;;;;3.00;3.00;;;;;16.33;49.67;101184.22;4972634;28;45563;-67
2023/05/12 08:06:00;;;;;;;;;6.33;4.67;;;;;16.48;50.25;101191.53;4971755;28;46387;-65
2023/05/12 08:08:25;;;;;;;;;7.33;3.00;;;;;16.59;49.70;101188.91;4971673;28;45450;-63
2023/05/12 08:10:50;;;;;;;;;5.33;5.33;;;;;16.67;49.83;101192.59;4971784;28;45282;-66
2023/05/12 08:13:16;;;;;;;;;3.67;3.67;;;;;16.74;49.50;101194.44;4972130;28;45546;-62
2023/05/12 08:15:41;;;;;;;;;6.00;6.00;;;;;16.71;49.63;101180.00;4969126;27;52501;-66
2023/05/12 08:18:07;;;;;;;;;5.00;3.67;;;;;16.77;50.03;101194.47;4971775;28;45281;-61
2023/05/12 08:20:32;;;;;;;;;4.00;3.67;;;;;16.83;49.73;101192.69;4971444;28;45433;-62
2023/05/12 08:22:58;;;;;;;;;5.33;4.00;;;;;16.54;49.94;101137.63;4971994;28;45490;-63
2023/05/12 08:25:23;;;;;;;;;3.00;3.00;;;;;16.92;49.96;101195.50;4970998;28;46334;-62
2023/05/12 08:27:50;;;;;;;;;3.33;3.33;;;;;16.68;49.82;101147.63;4971507;28;45492;-62
2023/05/12 08:30:15;;;;;;;;;4.67;4.67;;;;;16.93;50.11;101181.13;4971902;28;45521;-61
2023/05/12 08:32:41;;;;;;;;;5.00;3.00;;;;;16.98;50.34;101186.53;4971921;27;45313;-65
2023/05/12 08:35:06;;;;;;;;;10.00;6.33;;;;;16.99;51.22;101204.56;4971349;28;46100;-62
2023/05/12 08:37:32;;;;;;;;;8.00;5.00;;;;;16.98;51.51;101202.75;4970503;28;45706;-62
2023/05/12 08:39:57;;;;;;;;;5.00;4.00;;;;;16.97;52.22;101204.53;4971503;28;45694;-63
2023/05/12 08:42:43;;;;;;;;;4.33;4.33;;;;;16.92;53.46;101207.19;4971761;28;45437;-61
2023/05/12 08:45:10;;;;;;;;;5.00;5.00;;;;;16.89;54.54;101204.47;4971111;28;46188;-61
2023/05/12 08:47:36;;;;;;;;;4.00;4.00;;;;;16.96;54.63;101205.47;4971405;28;45459;-67
2023/05/12 08:50:03;;;;;;;;;7.33;6.00;;;;;17.00;54.81;101211.78;4970132;28;45501;-62
2023/05/12 08:52:32;;;;;;;;;4.67;2.67;;;;;16.98;54.49;101217.16;4962306;28;45772;-62
2023/05/12 08:54:58;;;;;;;;;14.33;11.33;;;;;17.00;54.96;101215.38;4965204;28;46420;-60
2023/05/12 08:57:25;;;;;;;;;10.00;10.00;;;;;16.98;55.29;101219.84;4971590;28;45361;-61
2023/05/12 08:59:54;;;;;;;;;16.00;10.33;;;;;16.97;55.82;101219.84;4952737;28;45449;-63
2023/05/12 09:02:22;;;;;;;;;13.33;8.67;;;;;16.93;56.74;101225.22;4971721;28;45469;-61
2023/05/12 09:04:48;;;;;;;;;13.00;9.67;;;;;16.88;56.92;101213.47;4965056;28;45488;-61
2023/05/12 09:07:14;;;;;;;;;14.50;13.75;;;;;16.85;57.24;101224.25;4971158;28;45423;-66
2023/05/12 09:09:44;;;;;;;;;42.50;36.00;;;;;16.76;57.99;101227.75;4971296;28;45250;-66
2023/05/12 09:12:14;;;;;;;;;17.67;15.00;;;;;16.73;57.88;101226.81;4971472;28;45405;-61
2023/05/12 09:14:39;;;;;;;;;15.00;15.00;;;;;16.67;59.15;101222.25;4971452;28;46140;-65
2023/05/12 09:17:05;;;;;;;;;9.67;9.00;;;;;16.65;58.24;101229.44;4970842;28;45538;-63
2023/05/12 09:19:31;;;;;;;;;8.00;7.33;;;;;16.57;58.88;101228.47;4971332;28;45628;-63
2023/05/12 09:21:58;;;;;;;;;16.67;11.67;;;;;16.47;59.92;101237.38;4958608;28;45636;-61
2023/05/12 09:24:35;;;;;;;;;14.33;10.67;;;;;16.39;60.57;101230.09;4971103;28;45475;-68
2023/05/12 09:27:00;;;;;;;;;28.75;23.75;;;;;16.43;60.62;101232.81;4967402;28;45428;-61
2023/05/12 09:29:26;;;;;;;;;16.75;16.00;;;;;16.31;61.27;101214.72;4970975;28;45314;-61
2023/05/12 09:31:53;;;;;;;;;13.33;10.67;;;;;16.34;61.31;101236.34;4970988;28;45479;-61
2023/05/12 09:34:26;;;;;;;;;10.67;9.00;;;;;16.25;62.01;101226.38;4970914;28;45294;-64
2023/05/12 09:37:00;;;;;;;;;16.00;11.00;;;;;16.19;62.35;101231.69;4969447;28;45917;-62
2023/05/12 09:39:25;;;;;;;;;18.00;16.25;;;;;16.14;62.34;101219.94;4971055;28;45466;-64
2023/05/12 09:41:51;;;;;;;;;18.00;13.00;;;;;16.20;62.66;101231.69;4971191;28;45673;-70
2023/05/12 09:44:17;;;;;;;;;12.00;12.00;;;;;16.23;63.25;101229.91;4970863;28;45510;-63
2023/05/12 09:46:43;;;;;;;;;26.75;23.00;;;;;16.12;63.48;101211.84;4970826;28;45557;-63
2023/05/12 09:49:09;;;;;;;;;9.67;7.00;;;;;16.30;63.14;101229.09;4971063;28;45345;-63
2023/05/12 09:51:34;;;;;;;;;37.00;32.00;;;;;16.38;63.44;101219.28;4970923;28;45500;-61
2023/05/12 09:54:00;;;;;;;;;9.67;9.67;;;;;16.53;62.48;101234.72;4964371;28;45508;-69
2023/05/12 09:56:28;;;;;;;;;16.00;13.33;;;;;16.61;62.51;101224.00;4965210;28;45368;-62
2023/05/12 09:58:55;;;;;;;;;11.00;7.00;;;;;16.50;61.26;101202.31;4969643;28;45494;-63
2023/05/12 10:01:25;;;;;;;;;12.67;6.33;;;;;16.66;61.71;101224.94;4971264;28;46186;-60
2023/05/12 10:03:53;;;;;;;;;7.00;6.67;;;;;16.71;62.21;101224.13;4973322;28;45436;-63
2023/05/12 10:06:27;;;;;;;;;14.33;9.67;;;;;16.81;62.04;101235.84;4960831;28;46167;-62
2023/05/12 10:08:52;;;;;;;;;22.50;21.00;;;;;16.86;61.81;101230.53;4968256;28;45215;-74
2023/05/12 10:11:18;;;;;;;;;8.00;8.00;;;;;16.86;60.92;101217.03;4974013;28;45509;-63
2023/05/12 10:13:44;;;;;;;;;9.00;9.00;;;;;16.86;61.50;101214.34;4973824;28;45372;-61
2023/05/12 10:16:10;;;;;;;;;7.33;7.33;;;;;16.90;60.46;101222.50;4973401;28;45372;-66
2023/05/12 10:18:36;;;;;;;;;12.67;10.67;;;;;16.92;60.25;101222.50;4973547;28;45372;-63
2023/05/12 10:21:02;;;;;;;;;9.67;6.33;;;;;16.92;60.35;101219.81;4973544;28;45521;-66
2023/05/12 10:23:28;;;;;;;;;9.00;9.00;;;;;16.87;60.22;101221.56;4972842;28;45569;-67
2023/05/12 10:26:00;;;;;;;;;6.33;6.33;;;;;16.78;60.40;101203.47;4969404;28;45584;-68
2023/05/12 10:28:28;;;;;;;;;9.00;9.00;;;;;16.89;61.63;101222.47;4973404;28;45392;-67
2023/05/12 10:30:56;;;;;;;;;8.67;8.00;;;;;16.91;61.48;101228.78;4973634;28;45342;-67
2023/05/12 10:33:22;;;;;;;;;10.00;9.00;;;;;16.84;61.35;101202.63;4973216;28;46513;-67
2023/05/12 10:35:48;;;;;;;;;24.00;17.25;;;;;16.90;60.95;101203.59;4973272;28;45421;-69
2023/05/12 10:38:18;;;;;;;;;10.67;10.67;;;;;17.03;60.49;101211.81;4973735;28;45706;-70
2023/05/12 10:41:00;;;;;;;;;6.33;6.33;;;;;16.84;59.14;101216.09;4973594;28;45445;-74
2023/05/12 10:43:28;;;;;;;;;8.00;8.00;;;;;16.81;60.60;101222.38;4973240;28;47422;-66
2023/05/12 10:46:06;;;;;;;;;8.67;7.67;;;;;16.76;61.24;101219.66;4973264;28;45314;-66
2023/05/12 10:48:32;;;;;;;;;5.00;5.00;;;;;16.69;60.27;101206.09;4966403;28;45413;-71
2023/05/12 10:51:06;;;;;;;;;9.00;6.33;;;;;16.73;60.02;101214.22;4973935;28;45392;-70
2023/05/12 10:53:37;;;;;;;;;9.33;9.33;;;;;16.74;59.93;101213.31;4966683;28;46186;-72
2023/05/12 10:56:06;;;;;;;;;9.33;9.33;;;;;16.77;59.55;101215.16;4968917;28;45519;-66
2023/05/12 10:58:34;;;;;;;;;10.00;6.33;;;;;16.82;59.75;101213.38;4954643;28;45383;-67
2023/05/12 11:01:05;;;;;;;;;10.67;9.00;;;;;16.88;59.99;101208.09;4969514;28;45506;-62
2023/05/12 11:03:32;;;;;;;;;17.75;14.00;;;;;16.95;59.80;101215.31;4971987;27;46805;-68
2023/05/12 11:06:03;;;;;;;;;13.00;12.25;;;;;17.02;58.35;101210.88;4973293;28;45418;-67
2023/05/12 11:08:30;;;;;;;;;23.00;18.25;;;;;17.05;59.24;101210.91;4973076;28;45393;-68
2023/05/12 11:10:56;;;;;;;;;21.50;18.00;;;;;17.12;59.53;101207.34;4972871;28;45309;-66
2023/05/12 11:13:23;;;;;;;;;15.00;10.00;;;;;17.17;59.46;101201.97;4966181;28;46477;-66
2023/05/12 11:15:49;;;;;;;;;12.00;10.00;;;;;17.17;59.03;101203.78;4972006;28;45424;-63
2023/05/12 11:18:22;;;;;;;;;28.75;28.50;;;;;17.14;58.83;101204.66;4972586;28;45562;-64